Time;durP1;ratioP1;P1;durP2;ratioP2;P2;SDS_P1;SDS_P2;PMS_P1;PMS_P2;Temp;Humidity;BMP_temperature;BMP_pressure;BME280_temperature;BME280_humidity;BME280_pressure;Samples;Min_cycle;Max_cycle;Signal;HPM_P1;HPM_P2
2021/11/11 00:01:36;;;;;;;24.53;10.97;;;1.50;97.30;;;;;;5014356;28;20177;-83
2021/11/11 00:04:02;;;;;;;22.60;11.87;;;1.50;97.30;;;;;;5013533;28;20192;-83
2021/11/11 00:06:29;;;;;;;26.27;12.53;;;1.50;97.30;;;;;;5013347;28;20818;-83
2021/11/11 00:08:54;;;;;;;21.40;10.63;;;1.50;97.30;;;;;;5014097;28;20271;-82
2021/11/11 00:11:20;;;;;;;25.40;11.93;;;1.40;97.30;;;;;;5014467;28;20505;-82
2021/11/11 00:13:45;;;;;;;28.10;12.00;;;1.40;97.30;;;;;;5014854;28;20205;-83
2021/11/11 00:16:11;;;;;;;31.37;11.40;;;1.40;97.30;;;;;;5013717;28;20194;-82
2021/11/11 00:18:36;;;;;;;25.30;12.17;;;1.40;97.30;;;;;;5013796;28;20272;-83
2021/11/11 00:21:03;;;;;;;21.30;11.00;;;1.40;97.30;;;;;;5013490;28;20597;-82
2021/11/11 00:23:28;;;;;;;30.10;12.07;;;1.40;97.30;;;;;;5013592;28;20208;-82
2021/11/11 00:25:54;;;;;;;26.50;11.20;;;1.40;97.30;;;;;;5013562;28;20443;-82
2021/11/11 00:28:20;;;;;;;30.33;12.33;;;1.40;97.30;;;;;;5013707;28;20572;-82
2021/11/11 00:30:45;;;;;;;25.37;10.90;;;1.40;97.30;;;;;;5013817;28;20243;-83
2021/11/11 00:33:11;;;;;;;29.57;13.20;;;1.30;97.30;;;;;;5014671;28;20248;-82
2021/11/11 00:35:37;;;;;;;22.60;9.73;;;1.30;97.30;;;;;;5013707;28;20197;-83
2021/11/11 00:38:03;;;;;;;25.90;11.03;;;1.30;97.30;;;;;;5013793;28;20548;-82
2021/11/11 00:40:30;;;;;;;25.87;11.00;;;1.30;97.30;;;;;;5013813;28;20416;-83
2021/11/11 00:42:56;;;;;;;26.37;10.83;;;1.20;97.30;;;;;;5014733;28;20415;-83
2021/11/11 00:45:22;;;;;;;24.23;11.00;;;1.10;97.30;;;;;;5013746;28;20878;-82
2021/11/11 00:47:49;;;;;;;23.90;10.67;;;1.10;97.30;;;;;;5017212;28;20467;-82
2021/11/11 00:50:17;;;;;;;23.97;10.70;;;1.10;97.30;;;;;;5017290;28;20451;-83
2021/11/11 00:52:44;;;;;;;30.83;11.00;;;1.10;97.30;;;;;;5017191;28;20968;-82
2021/11/11 00:55:10;;;;;;;22.60;10.20;;;1.10;97.30;;;;;;5017347;28;20436;-84
2021/11/11 00:57:36;;;;;;;30.33;11.37;;;1.10;97.30;;;;;;5017208;28;20465;-83
2021/11/11 01:00:04;;;;;;;22.33;9.70;;;1.10;97.30;;;;;;5016080;28;20409;-83
2021/11/11 01:02:30;;;;;;;27.70;10.90;;;1.10;97.30;;;;;;5016373;28;20639;-83
2021/11/11 01:04:55;;;;;;;24.80;10.73;;;1.00;97.30;;;;;;5016526;28;20618;-83
2021/11/11 01:07:21;;;;;;;29.27;10.37;;;1.00;97.30;;;;;;5016797;28;20204;-82
2021/11/11 01:09:47;;;;;;;20.30;10.53;;;1.00;97.30;;;;;;5017618;28;20181;-82
2021/11/11 01:12:13;;;;;;;21.80;10.67;;;1.00;97.30;;;;;;5016727;28;20860;-82
2021/11/11 01:14:38;;;;;;;34.53;10.23;;;1.00;97.30;;;;;;5018194;28;20193;-82
2021/11/11 01:17:05;;;;;;;28.57;10.90;;;1.00;97.30;;;;;;5017469;28;20174;-82
2021/11/11 01:19:31;;;;;;;24.60;11.33;;;1.00;97.30;;;;;;5017229;28;20177;-82
2021/11/11 01:21:57;;;;;;;25.17;11.03;;;1.00;97.30;;;;;;5017358;28;20416;-82
2021/11/11 01:24:22;;;;;;;25.37;11.20;;;1.00;97.30;;;;;;5016648;28;20934;-82
2021/11/11 01:26:48;;;;;;;21.50;11.37;;;1.00;97.30;;;;;;5017602;28;20666;-82
2021/11/11 01:29:14;;;;;;;27.23;11.43;;;1.00;97.30;;;;;;5018555;28;20188;-82
2021/11/11 01:31:39;;;;;;;20.20;9.33;;;0.90;97.30;;;;;;5017285;28;20239;-82
2021/11/11 01:34:05;;;;;;;22.97;11.57;;;0.90;97.30;;;;;;5018151;28;20205;-83
2021/11/11 01:36:31;;;;;;;20.23;9.47;;;0.90;97.30;;;;;;5017950;28;20236;-83
2021/11/11 01:38:57;;;;;;;30.30;11.30;;;0.90;97.30;;;;;;5018243;28;20205;-83
2021/11/11 01:41:22;;;;;;;21.97;9.90;;;0.80;97.30;;;;;;5018583;28;20185;-81
2021/11/11 01:43:48;;;;;;;24.60;10.27;;;0.80;97.30;;;;;;5017655;28;20491;-83
2021/11/11 01:46:14;;;;;;;27.53;11.17;;;0.80;97.30;;;;;;5017665;28;20674;-82
2021/11/11 01:48:39;;;;;;;23.47;10.20;;;0.80;97.30;;;;;;5017437;28;20219;-82
2021/11/11 01:51:06;;;;;;;24.27;10.67;;;0.70;97.30;;;;;;5018177;28;20177;-82
2021/11/11 01:53:31;;;;;;;25.33;9.73;;;0.60;97.30;;;;;;5017294;28;20243;-83
2021/11/11 01:55:57;;;;;;;28.83;10.73;;;0.60;97.30;;;;;;5017543;28;20440;-82
2021/11/11 01:58:23;;;;;;;25.13;10.10;;;0.60;97.30;;;;;;5016829;28;20279;-82
2021/11/11 02:00:52;;;;;;;26.37;11.30;;;0.60;97.30;;;;;;5017366;28;20181;-82
2021/11/11 02:03:18;;;;;;;27.67;10.47;;;0.60;97.30;;;;;;5017100;28;20511;-82
2021/11/11 02:05:45;;;;;;;23.70;9.00;;;0.60;97.30;;;;;;5016479;28;20483;-82
2021/11/11 02:08:11;;;;;;;29.73;11.30;;;0.60;97.30;;;;;;5016478;28;20428;-82
2021/11/11 02:10:37;;;;;;;28.63;10.33;;;0.60;97.30;;;;;;5015423;28;20421;-83
2021/11/11 02:13:04;;;;;;;23.23;9.97;;;0.60;97.30;;;;;;5015418;28;20487;-83
2021/11/11 02:15:31;;;;;;;29.63;11.53;;;0.50;97.30;;;;;;5015776;28;20436;-83
2021/11/11 02:17:57;;;;;;;19.90;9.83;;;0.50;97.30;;;;;;5016062;28;20431;-82
2021/11/11 02:20:28;;;;;;;17.97;9.77;;;0.50;97.30;;;;;;5016290;28;20427;-82
2021/11/11 02:22:55;;;;;;;25.43;9.60;;;0.50;97.30;;;;;;5016171;28;20428;-83
2021/11/11 02:25:23;;;;;;;25.93;11.80;;;0.50;97.30;;;;;;5015973;28;20440;-82
2021/11/11 02:27:52;;;;;;;22.57;10.97;;;0.50;97.30;;;;;;5015697;28;20435;-82
2021/11/11 02:30:20;;;;;;;20.30;9.07;;;0.40;97.30;;;;;;5015657;28;20420;-82
2021/11/11 02:32:47;;;;;;;20.37;9.43;;;0.40;97.30;;;;;;5016334;28;20554;-82
2021/11/11 02:35:13;;;;;;;18.33;9.10;;;0.40;97.30;;;;;;5016472;28;20945;-82
2021/11/11 02:37:40;;;;;;;24.33;10.70;;;0.30;97.30;;;;;;5016573;28;20455;-82
2021/11/11 02:40:10;;;;;;;21.50;9.40;;;0.30;97.30;;;;;;5015882;28;20412;-82
2021/11/11 02:42:37;;;;;;;20.97;9.33;;;0.30;97.30;;;;;;5015962;28;20424;-83
2021/11/11 02:45:06;;;;;;;19.23;8.80;;;0.30;97.30;;;;;;5014818;28;20472;-83
2021/11/11 02:47:32;;;;;;;19.93;10.20;;;0.30;97.30;;;;;;5014433;28;20518;-84
2021/11/11 02:49:58;;;;;;;19.37;9.87;;;0.30;97.30;;;;;;5014487;28;20487;-83
2021/11/11 02:52:24;;;;;;;21.93;9.70;;;0.30;97.30;;;;;;5014213;28;20428;-83
2021/11/11 02:54:50;;;;;;;16.23;9.33;;;0.30;97.30;;;;;;5014180;28;20201;-83
2021/11/11 02:57:19;;;;;;;20.60;9.17;;;0.30;97.30;;;;;;5013819;28;20180;-83
2021/11/11 02:59:45;;;;;;;23.67;10.33;;;0.30;97.30;;;;;;5014076;28;20416;-83
2021/11/11 03:02:21;;;;;;;19.00;8.93;;;0.30;97.30;;;;;;5013793;28;20424;-83
2021/11/11 03:04:47;;;;;;;21.77;11.53;;;0.30;97.30;;;;;;5013737;28;20193;-83
2021/11/11 03:07:12;;;;;;;24.63;10.53;;;0.30;97.30;;;;;;5014455;28;20827;-83
2021/11/11 03:09:40;;;;;;;23.30;10.70;;;0.30;97.30;;;;;;5013447;28;20547;-84
2021/11/11 03:12:07;;;;;;;25.07;8.73;;;0.30;97.30;;;;;;5012827;28;20185;-83
2021/11/11 03:14:32;;;;;;;16.13;9.03;;;0.20;97.30;;;;;;5013629;28;20474;-83
2021/11/11 03:16:58;;;;;;;23.47;9.57;;;0.20;97.30;;;;;;5013828;28;20415;-83
2021/11/11 03:19:24;;;;;;;28.23;9.93;;;0.20;97.30;;;;;;5013487;28;20866;-82
2021/11/11 03:21:49;;;;;;;23.10;9.53;;;0.20;97.30;;;;;;5013070;28;20181;-83
2021/11/11 03:24:15;;;;;;;19.43;9.63;;;0.20;97.30;;;;;;5013941;28;20177;-83
2021/11/11 03:26:41;;;;;;;21.30;9.67;;;0.20;97.30;;;;;;5012587;28;20201;-83
2021/11/11 03:29:06;;;;;;;23.73;10.57;;;0.10;97.30;;;;;;5012504;28;20276;-83
2021/11/11 03:31:32;;;;;;;22.40;9.63;;;0.10;97.30;;;;;;5012761;28;20191;-83
2021/11/11 03:33:58;;;;;;;19.83;9.60;;;0.10;97.30;;;;;;5012863;28;20200;-83
2021/11/11 03:36:23;;;;;;;22.90;9.63;;;0.10;97.30;;;;;;5012901;28;20216;-83
2021/11/11 03:38:49;;;;;;;19.17;8.80;;;0.10;97.30;;;;;;5012893;28;20184;-83
2021/11/11 03:41:14;;;;;;;21.70;10.57;;;0.10;97.30;;;;;;5012849;28;20180;-82
2021/11/11 03:43:40;;;;;;;23.27;9.97;;;0.00;97.30;;;;;;5013371;28;20628;-82
2021/11/11 03:46:05;;;;;;;20.07;8.60;;;0.00;97.30;;;;;;5013640;28;20206;-82
2021/11/11 03:48:31;;;;;;;18.43;9.67;;;0.00;97.30;;;;;;5012619;28;20604;-82
2021/11/11 03:50:57;;;;;;;18.90;9.20;;;0.00;97.30;;;;;;5013625;28;20247;-82
2021/11/11 03:53:23;;;;;;;19.83;10.13;;;0.00;97.30;;;;;;5012959;28;20204;-83
2021/11/11 03:55:48;;;;;;;17.90;8.40;;;0.00;97.30;;;;;;5012591;28;20264;-83
2021/11/11 03:58:17;;;;;;;18.93;8.73;;;0.00;97.30;;;;;;5012599;28;20461;-83
2021/11/11 04:00:45;;;;;;;22.07;8.80;;;0.00;97.30;;;;;;5014269;28;20173;-83
2021/11/11 04:03:10;;;;;;;18.70;8.50;;;0.00;97.30;;;;;;5013055;28;20424;-83
2021/11/11 04:05:36;;;;;;;18.97;9.07;;;0.00;97.30;;;;;;5012775;28;20605;-82
2021/11/11 04:08:02;;;;;;;17.50;8.33;;;0.00;97.30;;;;;;5014386;28;20223;-83
2021/11/11 04:10:27;;;;;;;15.23;8.33;;;0.00;97.30;;;;;;5013220;28;20502;-83
2021/11/11 04:12:53;;;;;;;20.80;9.60;;;0.00;97.30;;;;;;5012881;28;20219;-83
2021/11/11 04:15:19;;;;;;;16.10;8.83;;;0.00;97.30;;;;;;5013072;28;20693;-82
2021/11/11 04:17:44;;;;;;;17.07;8.53;;;0.00;97.30;;;;;;5013957;28;20195;-82
2021/11/11 04:20:11;;;;;;;14.80;8.37;;;0.00;97.30;;;;;;5013186;28;20183;-82
2021/11/11 04:22:38;;;;;;;18.30;9.27;;;0.00;97.30;;;;;;5017549;28;20723;-83
2021/11/11 04:25:05;;;;;;;17.77;9.20;;;0.00;97.30;;;;;;5016910;28;20526;-82
2021/11/11 04:27:42;;;;;;;24.43;8.90;;;0.00;97.30;;;;;;5016885;28;20424;-83
2021/11/11 04:30:20;;;;;;;18.10;8.70;;;0.00;97.30;;;;;;5016608;28;20507;-83
2021/11/11 04:32:46;;;;;;;20.67;9.20;;;0.00;97.30;;;;;;5015861;28;20511;-83
2021/11/11 04:35:12;;;;;;;20.67;8.73;;;0.00;97.30;;;;;;5016172;28;20445;-83
2021/11/11 04:37:57;;;;;;;20.20;8.53;;;0.00;97.30;;;;;;5017009;28;20173;-83
2021/11/11 04:41:34;;;;;;;20.30;7.90;;;0.00;97.30;;;;;;5017358;28;20412;-83
2021/11/11 04:59:49;;;;;;;20.60;8.77;;;-0.30;97.30;;;;;;5019624;28;20387;-82
2021/11/11 05:04:40;;;;;;;23.83;9.17;;;-0.30;97.30;;;;;;5019267;28;20948;-82
2021/11/11 05:07:06;;;;;;;23.03;10.47;;;-0.20;97.30;;;;;;5017994;28;20198;-81
2021/11/11 05:09:32;;;;;;;19.77;10.13;;;-0.20;97.30;;;;;;5019762;28;20169;-83
2021/11/11 05:11:57;;;;;;;17.60;8.80;;;-0.10;97.30;;;;;;5018226;28;20206;-83
2021/11/11 05:14:23;;;;;;;22.03;9.17;;;-0.10;97.30;;;;;;5018000;28;20208;-82
2021/11/11 05:16:49;;;;;;;27.73;11.00;;;-0.10;97.30;;;;;;5019462;28;20177;-81
2021/11/11 05:19:14;;;;;;;21.30;9.33;;;-0.10;97.30;;;;;;5019453;28;20175;-83
2021/11/11 05:21:40;;;;;;;24.70;10.23;;;-0.10;97.30;;;;;;5019394;28;20179;-83
2021/11/11 05:24:06;;;;;;;20.73;10.10;;;-0.10;97.30;;;;;;5027926;28;20180;-83
2021/11/11 05:26:32;;;;;;;23.53;9.47;;;-0.10;97.30;;;;;;5038354;28;20265;-83
2021/11/11 05:28:57;;;;;;;26.00;8.13;;;-0.10;97.30;;;;;;5038048;28;20423;-82
2021/11/11 05:31:23;;;;;;;23.37;9.73;;;-0.10;97.30;;;;;;5038570;28;20174;-82
2021/11/11 05:33:49;;;;;;;16.67;8.80;;;-0.10;97.30;;;;;;5037518;28;20227;-82
2021/11/11 05:36:15;;;;;;;19.33;9.13;;;-0.10;97.30;;;;;;5038838;28;20204;-82
2021/11/11 05:38:40;;;;;;;25.60;9.80;;;-0.10;97.30;;;;;;5038511;28;20711;-82
2021/11/11 05:41:06;;;;;;;16.00;8.93;;;-0.10;97.30;;;;;;5038988;28;20169;-82
2021/11/11 05:43:32;;;;;;;21.83;8.20;;;-0.10;97.30;;;;;;5037441;28;20176;-82
2021/11/11 05:45:58;;;;;;;21.47;9.97;;;-0.10;97.30;;;;;;5036912;28;20470;-83
2021/11/11 05:48:24;;;;;;;18.50;9.33;;;-0.10;97.30;;;;;;5036362;28;20654;-82
2021/11/11 05:50:49;;;;;;;20.43;9.83;;;-0.10;97.30;;;;;;5036497;28;20421;-83
2021/11/11 05:53:15;;;;;;;16.97;8.53;;;-0.20;97.30;;;;;;5036839;28;20231;-83
2021/11/11 05:55:41;;;;;;;17.57;9.40;;;-0.20;97.30;;;;;;5036626;28;20596;-83
2021/11/11 05:58:06;;;;;;;22.73;9.70;;;-0.20;97.30;;;;;;5035415;28;20180;-83
2021/11/11 06:00:32;;;;;;;24.40;10.40;;;-0.20;97.30;;;;;;5036375;28;20172;-82
2021/11/11 06:02:58;;;;;;;17.03;8.77;;;-0.20;97.30;;;;;;5036782;28;20180;-82
2021/11/11 06:05:26;;;;;;;25.57;9.70;;;-0.20;97.30;;;;;;5036503;28;20573;-82
2021/11/11 06:07:52;;;;;;;19.80;8.90;;;-0.20;97.30;;;;;;5036713;28;20720;-83
2021/11/11 06:10:17;;;;;;;23.70;10.80;;;-0.20;97.30;;;;;;5036316;28;20936;-83
2021/11/11 06:12:43;;;;;;;23.53;9.73;;;-0.20;97.30;;;;;;5035866;28;20462;-83
2021/11/11 06:15:09;;;;;;;22.17;9.23;;;-0.20;97.30;;;;;;5035736;28;20192;-83
2021/11/11 06:17:35;;;;;;;23.10;9.20;;;-0.20;97.30;;;;;;5037027;28;20182;-83
2021/11/11 06:20:09;;;;;;;22.70;9.23;;;-0.20;97.30;;;;;;5035496;28;21008;-83
2021/11/11 06:22:35;;;;;;;22.10;9.43;;;-0.20;97.30;;;;;;5037335;28;20402;-83
2021/11/11 06:25:01;;;;;;;22.43;9.00;;;-0.20;97.30;;;;;;5035791;28;20590;-83
2021/11/11 06:27:26;;;;;;;20.00;9.27;;;-0.20;97.30;;;;;;5037200;28;20516;-84
2021/11/11 06:29:52;;;;;;;24.40;9.17;;;-0.20;97.30;;;;;;5035861;28;20180;-84
2021/11/11 06:32:17;;;;;;;26.80;9.27;;;-0.20;97.30;;;;;;5035962;28;20268;-83
2021/11/11 06:34:43;;;;;;;28.77;11.80;;;-0.20;97.30;;;;;;5037579;28;20200;-83
2021/11/11 06:37:08;;;;;;;21.60;9.57;;;-0.10;97.30;;;;;;5036388;28;20199;-83
2021/11/11 06:39:34;;;;;;;21.93;10.20;;;-0.10;97.30;;;;;;5035936;28;20654;-83
2021/11/11 06:41:59;;;;;;;22.10;9.03;;;-0.10;97.30;;;;;;5035629;28;20172;-83
2021/11/11 06:44:25;;;;;;;20.70;9.47;;;-0.10;97.30;;;;;;5035488;28;20188;-83
2021/11/11 06:46:51;;;;;;;22.33;9.30;;;0.00;97.30;;;;;;5035905;28;20188;-83
2021/11/11 06:49:17;;;;;;;22.70;10.17;;;0.00;97.30;;;;;;5036137;28;20179;-82
2021/11/11 06:51:43;;;;;;;22.23;9.43;;;0.00;97.30;;;;;;5035731;28;20177;-82
2021/11/11 06:54:09;;;;;;;25.13;9.73;;;0.00;97.30;;;;;;5036037;28;21052;-83
2021/11/11 06:56:36;;;;;;;19.40;8.77;;;0.00;97.30;;;;;;5035678;28;20443;-83
2021/11/11 06:59:02;;;;;;;22.90;10.60;;;0.10;97.30;;;;;;5035956;28;20415;-83
2021/11/11 07:01:27;;;;;;;23.00;10.33;;;0.10;97.30;;;;;;5036196;28;20418;-82
2021/11/11 07:03:53;;;;;;;17.47;8.90;;;0.20;97.30;;;;;;5036428;28;20176;-82
2021/11/11 07:06:18;;;;;;;24.73;9.50;;;0.20;97.30;;;;;;5036653;28;20292;-82
2021/11/11 07:08:44;;;;;;;23.83;11.30;;;0.30;97.30;;;;;;5036083;28;20169;-82
2021/11/11 07:11:10;;;;;;;27.67;9.70;;;0.40;97.30;;;;;;5036288;28;20177;-83
2021/11/11 07:13:35;;;;;;;17.73;9.60;;;0.40;97.30;;;;;;5035705;28;20290;-82
2021/11/11 07:16:01;;;;;;;21.83;9.07;;;0.50;97.30;;;;;;5035838;28;20208;-83
2021/11/11 07:18:27;;;;;;;26.67;10.90;;;0.50;97.30;;;;;;5036190;28;20220;-81
2021/11/11 07:20:53;;;;;;;21.50;9.27;;;0.60;97.30;;;;;;5039122;28;20774;-82
2021/11/11 07:23:23;;;;;;;20.00;8.93;;;0.70;97.30;;;;;;5039124;28;20176;-82
2021/11/11 07:25:52;;;;;;;26.37;9.87;;;0.70;97.30;;;;;;5039620;28;20431;-82
2021/11/11 07:28:19;;;;;;;23.50;10.10;;;0.80;97.30;;;;;;5039890;28;20434;-81
2021/11/11 07:30:45;;;;;;;26.10;9.57;;;0.80;97.30;;;;;;5039604;28;20449;-82
2021/11/11 07:33:13;;;;;;;21.50;9.63;;;0.90;97.30;;;;;;5039183;28;20475;-82
2021/11/11 07:35:40;;;;;;;23.73;10.07;;;1.00;97.30;;;;;;5039061;28;20436;-82
2021/11/11 07:38:06;;;;;;;17.70;8.63;;;1.10;97.30;;;;;;5038771;28;20473;-82
2021/11/11 07:40:32;;;;;;;22.97;10.17;;;1.10;97.30;;;;;;5038812;28;20442;-82
2021/11/11 07:42:58;;;;;;;27.40;10.63;;;1.30;97.30;;;;;;5038270;28;20427;-82
2021/11/11 07:45:25;;;;;;;31.37;13.63;;;1.50;97.30;;;;;;5037725;28;20198;-82
2021/11/11 07:47:56;;;;;;;28.43;11.53;;;1.70;97.30;;;;;;5038819;28;20604;-82
2021/11/11 07:50:23;;;;;;;31.67;13.67;;;1.90;97.30;;;;;;5038041;28;20472;-82
2021/11/11 07:52:48;;;;;;;30.83;12.50;;;2.10;97.30;;;;;;5038009;28;20534;-82
2021/11/11 07:55:14;;;;;;;24.30;11.73;;;2.20;97.30;;;;;;5038875;28;20513;-82
2021/11/11 07:57:40;;;;;;;34.00;14.30;;;2.40;97.30;;;;;;5042184;28;20168;-82
2021/11/11 08:00:11;;;;;;;27.60;13.23;;;2.50;97.30;;;;;;5042213;28;20184;-82
2021/11/11 08:02:40;;;;;;;26.40;12.50;;;2.70;97.30;;;;;;5042842;28;20411;-82
2021/11/11 08:05:07;;;;;;;32.77;12.60;;;2.80;97.30;;;;;;5041652;28;20474;-82
2021/11/11 08:07:34;;;;;;;32.47;13.00;;;2.90;97.30;;;;;;5041865;28;20789;-82
2021/11/11 08:10:00;;;;;;;37.77;14.07;;;3.00;97.30;;;;;;5041821;28;20449;-82
2021/11/11 08:12:25;;;;;;;30.20;12.90;;;3.10;97.30;;;;;;5041327;28;20411;-81
2021/11/11 08:14:51;;;;;;;31.87;13.77;;;3.10;97.30;;;;;;5041224;28;20466;-82
2021/11/11 08:17:20;;;;;;;31.33;12.97;;;3.20;97.30;;;;;;5041013;28;20486;-82
2021/11/11 08:19:47;;;;;;;35.00;12.97;;;3.30;97.30;;;;;;5041076;28;20183;-82
2021/11/11 08:22:13;;;;;;;31.97;13.33;;;3.40;97.30;;;;;;5040749;28;20433;-82
2021/11/11 08:24:43;;;;;;;30.33;13.30;;;3.40;97.30;;;;;;5041568;28;20530;-82
2021/11/11 08:27:11;;;;;;;29.60;12.40;;;3.50;97.30;;;;;;5041524;28;20423;-82
2021/11/11 08:29:37;;;;;;;32.30;13.13;;;3.50;97.30;;;;;;5040648;28;20419;-82
2021/11/11 08:32:02;;;;;;;30.63;14.70;;;3.70;97.30;;;;;;5040666;28;20520;-82
2021/11/11 08:34:28;;;;;;;30.77;13.20;;;3.80;97.30;;;;;;5040672;28;20200;-82
2021/11/11 08:36:54;;;;;;;35.73;14.97;;;3.90;97.30;;;;;;5040727;28;20894;-82
2021/11/11 08:39:20;;;;;;;34.70;14.10;;;4.00;97.30;;;;;;5040602;28;20183;-81
2021/11/11 08:41:46;;;;;;;39.13;14.20;;;4.10;97.30;;;;;;5041180;28;20235;-82
2021/11/11 08:44:12;;;;;;;27.93;12.33;;;4.30;97.30;;;;;;5040981;28;20426;-81
2021/11/11 08:46:38;;;;;;;36.53;14.23;;;4.40;97.30;;;;;;5040461;28;21010;-81
2021/11/11 08:49:05;;;;;;;38.13;14.47;;;4.40;97.30;;;;;;5039903;28;20423;-81
2021/11/11 08:51:34;;;;;;;36.50;14.60;;;4.50;97.30;;;;;;5039593;28;20788;-82
2021/11/11 08:54:01;;;;;;;35.53;13.80;;;4.60;97.30;;;;;;5038511;28;20458;-82
2021/11/11 08:56:27;;;;;;;38.37;14.30;;;4.70;97.30;;;;;;5038801;28;20514;-82
2021/11/11 08:58:52;;;;;;;28.73;13.70;;;4.70;97.30;;;;;;5038803;28;20455;-82
2021/11/11 09:01:18;;;;;;;25.33;12.40;;;4.70;97.30;;;;;;5038673;28;20189;-82
2021/11/11 09:03:43;;;;;;;30.10;13.33;;;4.80;97.30;;;;;;5039168;28;20180;-82
2021/11/11 09:06:10;;;;;;;30.70;13.33;;;4.90;97.30;;;;;;5039105;28;20196;-82
2021/11/11 09:08:36;;;;;;;32.90;13.97;;;4.90;97.30;;;;;;5037479;28;20231;-82
2021/11/11 09:11:02;;;;;;;37.83;14.30;;;5.00;97.30;;;;;;5038517;28;20407;-82
2021/11/11 09:13:30;;;;;;;32.50;14.80;;;5.10;97.30;;;;;;5039252;28;20203;-82
2021/11/11 09:15:56;;;;;;;28.00;12.80;;;5.20;97.30;;;;;;5038374;28;20196;-82
2021/11/11 09:18:21;;;;;;;24.97;12.20;;;5.30;97.30;;;;;;5038138;28;20496;-82
2021/11/11 09:20:47;;;;;;;31.33;12.60;;;5.40;97.30;;;;;;5038077;28;20184;-82
2021/11/11 09:23:12;;;;;;;30.87;14.50;;;5.40;97.30;;;;;;5038500;28;20180;-83
2021/11/11 09:25:38;;;;;;;27.27;12.80;;;5.50;97.30;;;;;;5038367;28;20204;-82
2021/11/11 09:28:04;;;;;;;27.23;13.00;;;5.50;97.30;;;;;;5037694;28;20263;-81
2021/11/11 09:30:34;;;;;;;27.53;12.33;;;5.60;97.30;;;;;;5037672;28;20494;-82
2021/11/11 09:33:00;;;;;;;31.83;12.90;;;5.70;97.30;;;;;;5038802;28;20514;-82
2021/11/11 09:35:26;;;;;;;31.03;13.30;;;5.80;97.30;;;;;;5038219;28;20427;-82
2021/11/11 09:37:52;;;;;;;24.50;12.10;;;5.90;97.30;;;;;;5039770;28;20255;-82
2021/11/11 09:40:21;;;;;;;29.33;11.90;;;6.00;97.30;;;;;;5037160;28;20948;-81
2021/11/11 09:42:46;;;;;;;25.93;11.40;;;6.10;97.30;;;;;;5038242;28;20179;-81
2021/11/11 09:45:16;;;;;;;24.60;11.67;;;6.10;97.30;;;;;;5037891;28;20439;-81
2021/11/11 09:47:46;;;;;;;25.50;11.07;;;6.30;97.30;;;;;;5037745;28;20207;-82
2021/11/11 09:50:12;;;;;;;27.13;12.07;;;6.40;97.30;;;;;;5054322;28;20427;-81
2021/11/11 09:52:39;;;;;;;40.20;13.27;;;6.60;97.30;;;;;;5037750;28;20419;-81
2021/11/11 10:00:37;;;;;;;24.97;10.57;;;6.80;97.30;;;;;;5038886;28;20407;-81
2021/11/11 10:03:05;;;;;;;30.77;12.90;;;7.00;97.30;;;;;;5037281;28;20435;-82
2021/11/11 10:05:31;;;;;;;26.57;12.00;;;7.10;97.30;;;;;;5037115;28;20465;-81
2021/11/11 10:07:56;;;;;;;34.33;14.00;;;7.10;97.30;;;;;;5037273;28;20427;-81
2021/11/11 10:10:37;;;;;;;24.23;11.90;;;7.20;97.30;;;;;;5036301;28;20188;-79
2021/11/11 10:13:20;;;;;;;29.93;12.77;;;7.30;97.30;;;;;;5035565;28;20622;-79
2021/11/11 10:16:09;;;;;;;30.90;13.07;;;7.40;97.30;;;;;;5035759;28;20435;-79
2021/11/11 10:18:40;;;;;;;29.93;12.33;;;7.60;97.30;;;;;;5051860;28;20434;-79
2021/11/11 10:21:31;;;;;;;28.40;12.80;;;7.70;97.30;;;;;;5035468;28;20445;-79
2021/11/11 10:24:12;;;;;;;28.70;13.10;;;7.80;97.30;;;;;;5035405;28;20411;-79
2021/11/11 10:26:41;;;;;;;32.10;13.43;;;7.90;97.30;;;;;;5035841;28;20974;-79
2021/11/11 10:29:23;;;;;;;29.47;12.30;;;8.10;97.30;;;;;;5035351;28;20463;-80
2021/11/11 10:31:54;;;;;;;32.57;13.33;;;8.20;97.30;;;;;;5036156;28;20403;-79
2021/11/11 10:34:20;;;;;;;30.90;12.00;;;8.30;97.30;;;;;;5035016;28;20463;-79
2021/11/11 10:36:52;;;;;;;30.27;13.00;;;8.40;97.30;;;;;;5035507;28;20466;-79
2021/11/11 10:39:24;;;;;;;29.00;12.50;;;8.60;97.30;;;;;;5035225;28;20226;-79
2021/11/11 10:41:52;;;;;;;28.10;13.30;;;8.70;97.30;;;;;;5035393;28;20456;-79
2021/11/11 10:44:35;;;;;;;32.53;13.53;;;8.90;97.30;;;;;;5035358;28;20494;-79
2021/11/11 10:47:04;;;;;;;27.17;13.23;;;9.10;97.30;;;;;;5034697;28;20426;-80
2021/11/11 10:49:42;;;;;;;26.27;13.23;;;9.10;97.30;;;;;;5035929;28;20507;-79
2021/11/11 10:52:34;;;;;;;28.70;13.17;;;9.20;97.30;;;;;;5035183;28;20479;-79
2021/11/11 10:55:18;;;;;;;34.97;14.40;;;9.20;97.30;;;;;;5051880;28;20830;-80
2021/11/11 10:57:52;;;;;;;28.97;13.63;;;9.20;97.30;;;;;;5035767;28;20439;-79
2021/11/11 11:00:27;;;;;;;33.03;13.77;;;9.40;97.30;;;;;;5034982;28;20399;-79
2021/11/11 11:03:03;;;;;;;32.97;14.40;;;9.60;97.30;;;;;;5035109;28;20510;-80
2021/11/11 11:05:35;;;;;;;22.20;12.40;;;9.70;97.30;;;;;;5034893;28;20451;-80
2021/11/11 11:08:08;;;;;;;23.50;12.10;;;9.90;97.30;;;;;;5034512;28;20439;-80
2021/11/11 11:10:36;;;;;;;30.47;13.10;;;9.90;97.30;;;;;;5051690;28;20423;-79
2021/11/11 11:13:17;;;;;;;31.80;12.63;;;10.00;97.30;;;;;;5036406;28;20458;-80
2021/11/11 11:15:47;;;;;;;33.90;12.40;;;10.10;97.30;;;;;;5035084;28;20447;-80
2021/11/11 11:18:14;;;;;;;26.33;12.43;;;10.00;97.30;;;;;;5035002;28;20418;-79
2021/11/11 11:20:40;;;;;;;28.20;13.30;;;10.00;97.30;;;;;;5034953;28;20905;-79
2021/11/11 11:23:29;;;;;;;27.73;13.17;;;10.00;97.30;;;;;;5035262;28;20959;-79
2021/11/11 11:26:05;;;;;;;32.63;13.60;;;10.00;97.30;;;;;;5034326;28;20648;-79
2021/11/11 11:28:44;;;;;;;29.00;12.03;;;10.10;97.30;;;;;;5034643;28;20916;-79
2021/11/11 11:31:10;;;;;;;29.10;13.03;;;10.20;97.30;;;;;;5035335;28;20407;-79
2021/11/11 11:33:43;;;;;;;28.87;12.80;;;10.40;97.30;;;;;;5034419;28;20475;-80
2021/11/11 11:36:14;;;;;;;25.13;12.20;;;10.60;97.30;;;;;;5035239;28;20492;-79
2021/11/11 11:38:53;;;;;;;26.00;12.10;;;10.80;97.30;;;;;;5034994;28;20873;-79
2021/11/11 11:41:34;;;;;;;30.90;12.97;;;11.10;97.30;;;;;;5033930;28;20446;-80
2021/11/11 11:44:23;;;;;;;31.97;12.67;;;11.20;97.30;;;;;;5015557;28;20424;-80
2021/11/11 11:46:54;;;;;;;25.77;11.37;;;11.20;96.60;;;;;;5015162;28;20902;-80
2021/11/11 11:49:23;;;;;;;27.30;13.43;;;11.20;96.70;;;;;;5014772;28;20796;-80
2021/11/11 11:51:49;;;;;;;22.80;11.30;;;11.30;96.80;;;;;;5015348;28;20790;-80
2021/11/11 11:54:38;;;;;;;24.77;11.63;;;11.40;96.50;;;;;;5015033;28;20458;-79
2021/11/11 11:57:11;;;;;;;25.20;12.37;;;11.60;96.10;;;;;;5014973;28;20401;-80
2021/11/11 11:59:44;;;;;;;30.50;11.97;;;11.70;96.10;;;;;;5016011;28;20409;-80
2021/11/11 12:04:58;;;;;;;26.00;10.77;;;12.00;94.70;;;;;;5016627;28;20444;-80
2021/11/11 12:10:06;;;;;;;27.17;11.30;;;12.10;95.30;;;;;;5017284;28;20450;-79
2021/11/11 12:13:24;;;;;;;23.63;11.80;;;12.20;94.40;;;;;;5015347;28;20412;-80
2021/11/11 12:40:34;;;;;;;21.00;9.97;;;13.00;91.50;;;;;;5017342;28;20400;-80
2021/11/11 12:43:14;;;;;;;19.83;11.40;;;13.00;90.90;;;;;;5019047;28;20416;-80
2021/11/11 12:45:41;;;;;;;26.47;10.80;;;12.90;91.20;;;;;;5019541;28;20439;-80
2021/11/11 12:48:10;;;;;;;22.70;11.50;;;12.80;91.80;;;;;;5019944;28;20416;-80
2021/11/11 12:51:04;;;;;;;23.70;10.97;;;12.80;91.70;;;;;;5020963;28;20478;-80
2021/11/11 12:53:32;;;;;;;27.30;11.47;;;12.90;92.00;;;;;;5033110;28;20463;-80
2021/11/11 12:56:01;;;;;;;21.13;10.97;;;13.00;91.50;;;;;;5019923;28;20443;-80
2021/11/11 12:58:42;;;;;;;26.67;11.73;;;13.00;91.50;;;;;;5019940;28;20424;-80
2021/11/11 13:01:12;;;;;;;24.33;10.97;;;13.10;91.50;;;;;;5021849;28;20443;-79
2021/11/11 13:03:52;;;;;;;22.70;10.53;;;13.30;91.70;;;;;;5020403;28;20458;-80
2021/11/11 13:06:36;;;;;;;25.10;10.80;;;13.50;91.30;;;;;;5020517;28;20969;-80
2021/11/11 13:09:23;;;;;;;22.63;11.30;;;13.60;90.00;;;;;;5020063;28;20427;-80
2021/11/11 13:12:01;;;;;;;27.73;12.57;;;13.60;90.20;;;;;;5019648;28;20424;-80
2021/11/11 13:14:30;;;;;;;26.80;11.87;;;13.60;90.80;;;;;;5021089;28;20584;-80
2021/11/11 13:16:59;;;;;;;22.87;11.40;;;13.70;91.10;;;;;;5020019;28;20452;-80
2021/11/11 13:19:37;;;;;;;25.03;10.67;;;13.80;90.00;;;;;;5020355;28;20420;-80
2021/11/11 13:22:50;;;;;;;30.23;12.37;;;13.90;88.80;;;;;;5020410;28;20833;-80
2021/11/11 14:03:08;;;;;;;22.93;11.07;;;14.80;87.00;;;;;;5020056;28;20488;-82
2021/11/11 15:14:11;;;;;;;26.67;11.80;;;11.10;94.70;;;;;;5015235;28;20431;-85
2021/11/11 15:16:51;;;;;;;102.53;21.70;;;11.20;94.90;;;;;;5003239;28;20448;-85
2021/11/11 15:20:35;;;;;;;136.33;28.93;;;11.00;95.10;;;;;;5016339;28;20420;-85
2021/11/11 16:24:08;;;;;;;27.20;12.37;;;6.80;97.30;;;;;;5021649;28;20436;-85
2021/11/11 16:26:34;;;;;;;26.40;10.47;;;6.60;97.30;;;;;;5031102;28;20196;-84
2021/11/11 16:29:02;;;;;;;25.03;11.47;;;6.50;97.30;;;;;;5038692;28;20421;-84